sensor_id;sensor_type;location;lat;lon;timestamp;P1;P2;P0
56495;PMS5003;42804;55.762;38.084;2023-02-26T00:01:24;31.40;30.20;16.20
56495;PMS5003;42804;55.762;38.084;2023-02-26T00:03:54;29.80;24.40;12.20
56495;PMS5003;42804;55.762;38.084;2023-02-26T00:06:22;35.20;28.80;15.40
56495;PMS5003;42804;55.762;38.084;2023-02-26T00:08:52;33.40;27.60;15.60
56495;PMS5003;42804;55.762;38.084;2023-02-26T00:11:21;31.00;25.00;12.80
56495;PMS5003;42804;55.762;38.084;2023-02-26T00:13:49;30.40;23.20;12.00
56495;PMS5003;42804;55.762;38.084;2023-02-26T00:16:21;27.60;24.80;12.00
56495;PMS5003;42804;55.762;38.084;2023-02-26T00:18:53;30.00;26.80;14.60
56495;PMS5003;42804;55.762;38.084;2023-02-26T00:21:22;34.80;28.40;12.20
56495;PMS5003;42804;55.762;38.084;2023-02-26T00:23:50;37.80;28.00;13.80
56495;PMS5003;42804;55.762;38.084;2023-02-26T00:26:19;31.60;26.40;14.00
56495;PMS5003;42804;55.762;38.084;2023-02-26T00:28:47;28.80;21.20;10.40
56495;PMS5003;42804;55.762;38.084;2023-02-26T00:31:16;29.80;23.60;12.40
56495;PMS5003;42804;55.762;38.084;2023-02-26T00:33:46;25.60;22.00;12.60
56495;PMS5003;42804;55.762;38.084;2023-02-26T00:36:19;21.20;16.40;10.00
56495;PMS5003;42804;55.762;38.084;2023-02-26T00:38:50;25.20;20.20;7.40
56495;PMS5003;42804;55.762;38.084;2023-02-26T00:41:24;40.40;32.00;19.00
56495;PMS5003;42804;55.762;38.084;2023-02-26T00:43:52;26.40;22.80;12.00
56495;PMS5003;42804;55.762;38.084;2023-02-26T00:46:21;30.60;27.00;15.80
56495;PMS5003;42804;55.762;38.084;2023-02-26T00:48:58;29.40;21.40;10.00
56495;PMS5003;42804;55.762;38.084;2023-02-26T00:51:31;35.20;23.60;11.20
56495;PMS5003;42804;55.762;38.084;2023-02-26T00:54:04;37.80;25.60;15.40
56495;PMS5003;42804;55.762;38.084;2023-02-26T00:56:34;41.20;28.60;12.80
56495;PMS5003;42804;55.762;38.084;2023-02-26T00:59:03;30.60;25.00;13.40
56495;PMS5003;42804;55.762;38.084;2023-02-26T01:01:31;36.00;27.60;17.60
56495;PMS5003;42804;55.762;38.084;2023-02-26T01:04:00;40.60;27.00;14.80
56495;PMS5003;42804;55.762;38.084;2023-02-26T01:06:29;26.60;25.60;13.40
56495;PMS5003;42804;55.762;38.084;2023-02-26T01:09:04;26.40;24.20;12.00
56495;PMS5003;42804;55.762;38.084;2023-02-26T01:11:36;37.60;25.40;13.00
56495;PMS5003;42804;55.762;38.084;2023-02-26T01:14:04;30.80;26.60;12.20
56495;PMS5003;42804;55.762;38.084;2023-02-26T01:16:33;25.20;21.40;12.80
56495;PMS5003;42804;55.762;38.084;2023-02-26T01:19:05;25.80;19.80;9.60
56495;PMS5003;42804;55.762;38.084;2023-02-26T01:21:40;22.50;18.75;9.50
56495;PMS5003;42804;55.762;38.084;2023-02-26T01:24:12;14.25;12.00;7.00
56495;PMS5003;42804;55.762;38.084;2023-02-26T01:26:42;18.40;17.60;7.40
56495;PMS5003;42804;55.762;38.084;2023-02-26T01:29:10;29.40;22.40;12.00
56495;PMS5003;42804;55.762;38.084;2023-02-26T01:31:40;3.50;3.00;0.00
56495;PMS5003;42804;55.762;38.084;2023-02-26T01:34:10;23.25;16.50;7.50
56495;PMS5003;42804;55.762;38.084;2023-02-26T01:36:43;24.50;17.25;8.00
56495;PMS5003;42804;55.762;38.084;2023-02-26T01:39:17;22.00;17.40;9.00
56495;PMS5003;42804;55.762;38.084;2023-02-26T01:41:47;18.25;15.00;8.00
56495;PMS5003;42804;55.762;38.084;2023-02-26T01:44:19;14.75;10.50;4.00
56495;PMS5003;42804;55.762;38.084;2023-02-26T01:46:57;18.25;13.50;7.50
56495;PMS5003;42804;55.762;38.084;2023-02-26T01:49:28;14.00;11.75;5.00
56495;PMS5003;42804;55.762;38.084;2023-02-26T01:51:57;14.25;12.75;6.25
56495;PMS5003;42804;55.762;38.084;2023-02-26T01:54:29;24.00;17.00;7.00
56495;PMS5003;42804;55.762;38.084;2023-02-26T01:56:58;13.50;13.50;9.75
56495;PMS5003;42804;55.762;38.084;2023-02-26T01:59:31;18.00;13.50;7.00
56495;PMS5003;42804;55.762;38.084;2023-02-26T02:02:00;14.00;11.50;6.50
56495;PMS5003;42804;55.762;38.084;2023-02-26T02:04:30;15.25;11.75;5.75
56495;PMS5003;42804;55.762;38.084;2023-02-26T02:07:00;18.25;12.50;7.00
56495;PMS5003;42804;55.762;38.084;2023-02-26T02:09:30;12.50;10.50;6.00
56495;PMS5003;42804;55.762;38.084;2023-02-26T02:12:05;16.00;12.50;4.50
56495;PMS5003;42804;55.762;38.084;2023-02-26T02:14:38;15.75;12.75;9.00
56495;PMS5003;42804;55.762;38.084;2023-02-26T02:17:11;5.50;4.00;3.50
56495;PMS5003;42804;55.762;38.084;2023-02-26T02:19:51;15.25;14.50;9.00
56495;PMS5003;42804;55.762;38.084;2023-02-26T02:22:30;10.50;9.00;6.00
56495;PMS5003;42804;55.762;38.084;2023-02-26T02:25:08;19.00;16.50;7.00
56495;PMS5003;42804;55.762;38.084;2023-02-26T02:27:42;19.25;14.00;6.00
56495;PMS5003;42804;55.762;38.084;2023-02-26T02:30:23;19.50;17.00;9.50
56495;PMS5003;42804;55.762;38.084;2023-02-26T02:32:55;10.00;9.25;6.00
56495;PMS5003;42804;55.762;38.084;2023-02-26T02:35:25;15.75;12.25;6.00
56495;PMS5003;42804;55.762;38.084;2023-02-26T02:37:57;13.00;8.25;6.00
56495;PMS5003;42804;55.762;38.084;2023-02-26T02:40:28;16.50;14.50;8.50
56495;PMS5003;42804;55.762;38.084;2023-02-26T02:43:00;15.50;12.25;8.00
56495;PMS5003;42804;55.762;38.084;2023-02-26T02:45:31;12.00;10.50;6.00
56495;PMS5003;42804;55.762;38.084;2023-02-26T02:48:03;14.00;12.25;6.50
56495;PMS5003;42804;55.762;38.084;2023-02-26T02:50:34;12.50;10.00;6.00
56495;PMS5003;42804;55.762;38.084;2023-02-26T02:53:07;19.75;15.00;7.25
56495;PMS5003;42804;55.762;38.084;2023-02-26T02:55:39;9.25;6.75;3.00
56495;PMS5003;42804;55.762;38.084;2023-02-26T02:58:10;12.00;11.00;6.25
56495;PMS5003;42804;55.762;38.084;2023-02-26T03:00:41;14.50;11.00;6.50
56495;PMS5003;42804;55.762;38.084;2023-02-26T03:03:12;16.50;14.50;9.00
56495;PMS5003;42804;55.762;38.084;2023-02-26T03:05:43;7.25;5.75;1.00
56495;PMS5003;42804;55.762;38.084;2023-02-26T03:08:12;10.25;8.00;5.00
56495;PMS5003;42804;55.762;38.084;2023-02-26T03:10:45;8.00;8.00;4.00
56495;PMS5003;42804;55.762;38.084;2023-02-26T03:13:14;7.00;3.00;1.00
56495;PMS5003;42804;55.762;38.084;2023-02-26T03:15:48;8.50;6.75;3.00
56495;PMS5003;42804;55.762;38.084;2023-02-26T03:18:22;11.00;10.25;6.00
56495;PMS5003;42804;55.762;38.084;2023-02-26T03:20:58;8.00;7.50;4.00
56495;PMS5003;42804;55.762;38.084;2023-02-26T03:23:31;9.75;8.50;4.00
56495;PMS5003;42804;55.762;38.084;2023-02-26T03:26:02;9.00;7.00;3.50
56495;PMS5003;42804;55.762;38.084;2023-02-26T03:28:38;6.75;6.75;3.75
56495;PMS5003;42804;55.762;38.084;2023-02-26T03:31:11;9.50;7.00;4.00
56495;PMS5003;42804;55.762;38.084;2023-02-26T03:33:46;6.75;6.75;4.00
56495;PMS5003;42804;55.762;38.084;2023-02-26T03:36:18;13.50;9.25;6.25
56495;PMS5003;42804;55.762;38.084;2023-02-26T03:39:02;9.00;7.00;3.25
56495;PMS5003;42804;55.762;38.084;2023-02-26T03:41:36;10.00;10.00;5.00
56495;PMS5003;42804;55.762;38.084;2023-02-26T03:44:06;6.75;5.00;5.00
56495;PMS5003;42804;55.762;38.084;2023-02-26T03:46:39;16.75;13.00;7.00
56495;PMS5003;42804;55.762;38.084;2023-02-26T03:49:11;14.50;10.75;6.50
56495;PMS5003;42804;55.762;38.084;2023-02-26T03:51:41;13.50;12.25;8.75
56495;PMS5003;42804;55.762;38.084;2023-02-26T03:54:40;16.00;13.25;9.00
56495;PMS5003;42804;55.762;38.084;2023-02-26T03:57:42;13.00;9.75;6.00
56495;PMS5003;42804;55.762;38.084;2023-02-26T04:00:40;15.75;15.00;7.00
56495;PMS5003;42804;55.762;38.084;2023-02-26T04:03:12;15.75;15.25;9.25
56495;PMS5003;42804;55.762;38.084;2023-02-26T04:05:44;15.75;12.75;7.50
56495;PMS5003;42804;55.762;38.084;2023-02-26T04:08:14;15.00;14.00;7.50
56495;PMS5003;42804;55.762;38.084;2023-02-26T04:10:44;19.50;16.00;7.50
56495;PMS5003;42804;55.762;38.084;2023-02-26T04:13:14;16.00;14.50;8.50
56495;PMS5003;42804;55.762;38.084;2023-02-26T04:15:42;13.50;11.75;6.25
56495;PMS5003;42804;55.762;38.084;2023-02-26T04:18:10;17.00;15.00;7.00
56495;PMS5003;42804;55.762;38.084;2023-02-26T04:20:38;12.50;12.50;8.00
56495;PMS5003;42804;55.762;38.084;2023-02-26T04:23:10;16.50;13.75;7.50
56495;PMS5003;42804;55.762;38.084;2023-02-26T04:25:38;11.25;10.00;5.00
56495;PMS5003;42804;55.762;38.084;2023-02-26T04:28:08;18.00;15.00;7.00
56495;PMS5003;42804;55.762;38.084;2023-02-26T04:30:36;11.25;9.25;7.00
56495;PMS5003;42804;55.762;38.084;2023-02-26T04:33:07;19.00;18.00;10.50
56495;PMS5003;42804;55.762;38.084;2023-02-26T04:35:35;21.67;14.33;7.00
56495;PMS5003;42804;55.762;38.084;2023-02-26T04:38:03;17.75;16.25;9.50
56495;PMS5003;42804;55.762;38.084;2023-02-26T04:40:34;15.50;13.00;8.00
56495;PMS5003;42804;55.762;38.084;2023-02-26T04:43:03;17.00;15.50;10.50
56495;PMS5003;42804;55.762;38.084;2023-02-26T04:45:36;26.50;20.50;11.00
56495;PMS5003;42804;55.762;38.084;2023-02-26T04:48:05;13.00;13.00;7.00
56495;PMS5003;42804;55.762;38.084;2023-02-26T04:50:33;16.75;13.50;6.50
56495;PMS5003;42804;55.762;38.084;2023-02-26T04:53:02;20.00;16.00;9.75
56495;PMS5003;42804;55.762;38.084;2023-02-26T04:55:33;24.25;18.75;9.75
56495;PMS5003;42804;55.762;38.084;2023-02-26T04:58:04;22.50;18.75;9.50
56495;PMS5003;42804;55.762;38.084;2023-02-26T05:00:32;17.00;15.25;6.00
56495;PMS5003;42804;55.762;38.084;2023-02-26T05:03:01;30.00;14.50;6.75
56495;PMS5003;42804;55.762;38.084;2023-02-26T05:05:30;26.20;20.20;11.20
56495;PMS5003;42804;55.762;38.084;2023-02-26T05:07:58;21.50;18.75;9.50
56495;PMS5003;42804;55.762;38.084;2023-02-26T05:10:26;24.25;20.75;11.00
56495;PMS5003;42804;55.762;38.084;2023-02-26T05:12:56;24.00;21.00;12.25
56495;PMS5003;42804;55.762;38.084;2023-02-26T05:15:24;14.00;13.25;8.00
56495;PMS5003;42804;55.762;38.084;2023-02-26T05:17:52;18.25;14.50;6.75
56495;PMS5003;42804;55.762;38.084;2023-02-26T05:20:20;19.80;17.00;11.20
56495;PMS5003;42804;55.762;38.084;2023-02-26T05:22:49;11.00;9.00;4.00
56495;PMS5003;42804;55.762;38.084;2023-02-26T05:25:17;19.00;16.25;9.50
56495;PMS5003;42804;55.762;38.084;2023-02-26T05:27:46;20.00;17.25;9.00
56495;PMS5003;42804;55.762;38.084;2023-02-26T05:30:16;10.50;9.25;2.50
56495;PMS5003;42804;55.762;38.084;2023-02-26T05:32:44;18.75;12.50;8.00
56495;PMS5003;42804;55.762;38.084;2023-02-26T05:35:12;20.00;17.00;9.00
56495;PMS5003;42804;55.762;38.084;2023-02-26T05:37:41;13.25;9.00;2.50
56495;PMS5003;42804;55.762;38.084;2023-02-26T05:40:09;13.50;12.50;4.00
56495;PMS5003;42804;55.762;38.084;2023-02-26T05:42:38;12.50;12.50;7.00
56495;PMS5003;42804;55.762;38.084;2023-02-26T05:45:07;13.50;12.75;7.00
56495;PMS5003;42804;55.762;38.084;2023-02-26T05:47:36;12.75;10.50;6.00
56495;PMS5003;42804;55.762;38.084;2023-02-26T05:50:05;9.00;8.50;6.00
56495;PMS5003;42804;55.762;38.084;2023-02-26T05:52:33;13.00;12.00;6.75
56495;PMS5003;42804;55.762;38.084;2023-02-26T05:55:02;8.00;8.00;4.00
56495;PMS5003;42804;55.762;38.084;2023-02-26T05:57:30;10.00;8.00;3.50
56495;PMS5003;42804;55.762;38.084;2023-02-26T05:59:58;11.50;6.75;4.00
56495;PMS5003;42804;55.762;38.084;2023-02-26T06:02:26;10.50;9.00;4.00
56495;PMS5003;42804;55.762;38.084;2023-02-26T06:04:56;8.00;8.00;3.50
56495;PMS5003;42804;55.762;38.084;2023-02-26T06:07:24;7.50;6.50;4.00
56495;PMS5003;42804;55.762;38.084;2023-02-26T06:09:52;14.00;12.50;6.25
56495;PMS5003;42804;55.762;38.084;2023-02-26T06:12:20;13.25;11.50;6.00
56495;PMS5003;42804;55.762;38.084;2023-02-26T06:14:49;10.00;9.00;6.00
56495;PMS5003;42804;55.762;38.084;2023-02-26T06:17:17;8.50;6.75;4.00
56495;PMS5003;42804;55.762;38.084;2023-02-26T06:19:45;9.00;9.00;6.00
56495;PMS5003;42804;55.762;38.084;2023-02-26T06:22:15;13.25;11.25;6.75
56495;PMS5003;42804;55.762;38.084;2023-02-26T06:24:43;9.00;9.00;4.25
56495;PMS5003;42804;55.762;38.084;2023-02-26T06:27:11;14.50;12.75;9.00
56495;PMS5003;42804;55.762;38.084;2023-02-26T06:29:39;10.75;10.75;7.00
56495;PMS5003;42804;55.762;38.084;2023-02-26T06:32:08;5.25;5.25;1.25
56495;PMS5003;42804;55.762;38.084;2023-02-26T06:34:36;8.00;6.50;4.00
56495;PMS5003;42804;55.762;38.084;2023-02-26T06:37:05;6.75;6.75;1.75
56495;PMS5003;42804;55.762;38.084;2023-02-26T06:39:34;9.00;8.00;4.00
56495;PMS5003;42804;55.762;38.084;2023-02-26T06:42:03;9.00;7.50;4.00
56495;PMS5003;42804;55.762;38.084;2023-02-26T06:44:31;4.00;2.25;1.00
56495;PMS5003;42804;55.762;38.084;2023-02-26T06:46:59;6.50;6.00;3.00
56495;PMS5003;42804;55.762;38.084;2023-02-26T06:49:27;7.00;6.50;3.00
56495;PMS5003;42804;55.762;38.084;2023-02-26T06:51:56;8.00;7.00;4.00
56495;PMS5003;42804;55.762;38.084;2023-02-26T06:54:24;9.25;8.00;4.00
56495;PMS5003;42804;55.762;38.084;2023-02-26T06:56:53;10.50;8.50;4.00
56495;PMS5003;42804;55.762;38.084;2023-02-26T06:59:23;5.50;4.50;1.75
56495;PMS5003;42804;55.762;38.084;2023-02-26T07:01:51;12.25;10.00;6.00
56495;PMS5003;42804;55.762;38.084;2023-02-26T07:04:20;11.00;8.50;4.00
56495;PMS5003;42804;55.762;38.084;2023-02-26T07:06:48;6.50;6.50;5.25
56495;PMS5003;42804;55.762;38.084;2023-02-26T07:09:16;18.25;15.25;9.50
56495;PMS5003;42804;55.762;38.084;2023-02-26T07:11:45;13.75;10.25;5.25
56495;PMS5003;42804;55.762;38.084;2023-02-26T07:14:15;9.75;9.75;6.75
56495;PMS5003;42804;55.762;38.084;2023-02-26T07:16:43;3.50;3.25;1.50
56495;PMS5003;42804;55.762;38.084;2023-02-26T07:19:11;9.00;9.00;4.00
56495;PMS5003;42804;55.762;38.084;2023-02-26T07:21:40;7.25;7.00;4.00
56495;PMS5003;42804;55.762;38.084;2023-02-26T07:24:08;10.00;7.00;5.50
56495;PMS5003;42804;55.762;38.084;2023-02-26T07:26:36;5.50;5.00;2.50
56495;PMS5003;42804;55.762;38.084;2023-02-26T07:29:04;7.50;6.75;4.00
56495;PMS5003;42804;55.762;38.084;2023-02-26T07:31:34;12.75;8.75;6.25
56495;PMS5003;42804;55.762;38.084;2023-02-26T07:34:03;9.50;9.25;6.25
56495;PMS5003;42804;55.762;38.084;2023-02-26T07:36:31;4.50;4.00;3.00
56495;PMS5003;42804;55.762;38.084;2023-02-26T07:38:59;8.00;6.25;3.00
56495;PMS5003;42804;55.762;38.084;2023-02-26T07:41:27;9.25;9.00;4.00
56495;PMS5003;42804;55.762;38.084;2023-02-26T07:43:56;8.00;7.00;3.00
56495;PMS5003;42804;55.762;38.084;2023-02-26T07:46:24;9.00;7.00;3.50
56495;PMS5003;42804;55.762;38.084;2023-02-26T07:48:54;2.50;2.00;0.00
56495;PMS5003;42804;55.762;38.084;2023-02-26T07:51:22;7.50;7.50;4.00
56495;PMS5003;42804;55.762;38.084;2023-02-26T07:53:51;3.50;2.00;1.00
56495;PMS5003;42804;55.762;38.084;2023-02-26T07:56:20;6.25;6.25;4.00
56495;PMS5003;42804;55.762;38.084;2023-02-26T07:58:48;8.00;6.25;4.00
56495;PMS5003;42804;55.762;38.084;2023-02-26T08:01:16;6.00;3.75;1.00
56495;PMS5003;42804;55.762;38.084;2023-02-26T08:03:44;6.25;6.25;3.50
56495;PMS5003;42804;55.762;38.084;2023-02-26T08:06:14;9.75;8.00;5.00
56495;PMS5003;42804;55.762;38.084;2023-02-26T08:08:42;10.50;8.50;5.50
56495;PMS5003;42804;55.762;38.084;2023-02-26T08:11:10;8.25;7.25;4.25
56495;PMS5003;42804;55.762;38.084;2023-02-26T08:13:38;6.25;6.00;3.00
56495;PMS5003;42804;55.762;38.084;2023-02-26T08:16:07;7.00;6.25;3.50
56495;PMS5003;42804;55.762;38.084;2023-02-26T08:18:35;15.50;11.50;4.00
56495;PMS5003;42804;55.762;38.084;2023-02-26T08:21:04;11.25;8.00;4.00
56495;PMS5003;42804;55.762;38.084;2023-02-26T08:23:33;9.75;9.25;4.25
56495;PMS5003;42804;55.762;38.084;2023-02-26T08:26:02;6.50;4.25;2.25
56495;PMS5003;42804;55.762;38.084;2023-02-26T08:28:31;8.25;6.75;3.75
56495;PMS5003;42804;55.762;38.084;2023-02-26T08:30:59;7.75;5.25;2.25
56495;PMS5003;42804;55.762;38.084;2023-02-26T08:33:28;8.00;7.00;4.00
56495;PMS5003;42804;55.762;38.084;2023-02-26T08:35:56;10.00;8.50;5.25
56495;PMS5003;42804;55.762;38.084;2023-02-26T08:38:25;8.50;7.75;4.00
56495;PMS5003;42804;55.762;38.084;2023-02-26T08:40:54;7.50;7.00;3.00
56495;PMS5003;42804;55.762;38.084;2023-02-26T08:43:23;6.75;6.75;3.25
56495;PMS5003;42804;55.762;38.084;2023-02-26T08:45:52;5.75;5.00;3.00
56495;PMS5003;42804;55.762;38.084;2023-02-26T08:48:20;7.75;6.75;1.50
56495;PMS5003;42804;55.762;38.084;2023-02-26T08:50:49;7.00;6.00;3.00
56495;PMS5003;42804;55.762;38.084;2023-02-26T08:53:17;5.25;4.50;1.75
56495;PMS5003;42804;55.762;38.084;2023-02-26T08:55:46;4.50;4.00;1.00
56495;PMS5003;42804;55.762;38.084;2023-02-26T08:58:16;4.75;4.75;2.25
56495;PMS5003;42804;55.762;38.084;2023-02-26T09:00:44;9.00;9.00;5.00
56495;PMS5003;42804;55.762;38.084;2023-02-26T09:03:14;9.25;7.25;4.00
56495;PMS5003;42804;55.762;38.084;2023-02-26T09:05:45;12.50;9.00;6.25
56495;PMS5003;42804;55.762;38.084;2023-02-26T09:08:13;9.00;7.75;4.75
56495;PMS5003;42804;55.762;38.084;2023-02-26T09:10:45;14.00;12.75;7.00
56495;PMS5003;42804;55.762;38.084;2023-02-26T09:13:15;13.50;10.50;5.25
56495;PMS5003;42804;55.762;38.084;2023-02-26T09:15:44;8.25;6.50;3.25
56495;PMS5003;42804;55.762;38.084;2023-02-26T09:18:12;12.50;10.25;6.25
56495;PMS5003;42804;55.762;38.084;2023-02-26T09:20:42;11.75;10.50;7.00
56495;PMS5003;42804;55.762;38.084;2023-02-26T09:23:10;5.00;4.25;1.75
56495;PMS5003;42804;55.762;38.084;2023-02-26T09:25:39;8.75;5.75;3.25
56495;PMS5003;42804;55.762;38.084;2023-02-26T09:28:07;6.00;5.50;3.25
56495;PMS5003;42804;55.762;38.084;2023-02-26T09:30:37;4.25;3.50;1.50
56495;PMS5003;42804;55.762;38.084;2023-02-26T09:33:05;9.50;7.00;4.75
56495;PMS5003;42804;55.762;38.084;2023-02-26T09:35:35;12.50;10.75;6.75
56495;PMS5003;42804;55.762;38.084;2023-02-26T09:38:03;8.25;7.00;4.75
56495;PMS5003;42804;55.762;38.084;2023-02-26T09:40:35;11.75;10.00;6.00
56495;PMS5003;42804;55.762;38.084;2023-02-26T09:43:22;13.75;12.75;8.25
56495;PMS5003;42804;55.762;38.084;2023-02-26T09:45:56;11.75;10.75;7.25
56495;PMS5003;42804;55.762;38.084;2023-02-26T09:48:27;16.00;15.50;11.50
56495;PMS5003;42804;55.762;38.084;2023-02-26T09:50:57;15.00;12.75;8.75
56495;PMS5003;42804;55.762;38.084;2023-02-26T09:53:26;4.00;3.75;3.00
56495;PMS5003;42804;55.762;38.084;2023-02-26T09:55:58;4.50;4.50;2.25
56495;PMS5003;42804;55.762;38.084;2023-02-26T09:58:29;5.75;4.25;3.75
56495;PMS5003;42804;55.762;38.084;2023-02-26T10:01:03;6.75;4.00;3.00
56495;PMS5003;42804;55.762;38.084;2023-02-26T10:03:35;3.75;3.75;1.00
56495;PMS5003;42804;55.762;38.084;2023-02-26T10:06:14;4.00;3.00;2.00
56495;PMS5003;42804;55.762;38.084;2023-02-26T10:08:47;6.50;6.25;3.25
56495;PMS5003;42804;55.762;38.084;2023-02-26T10:11:22;2.00;1.00;0.00
56495;PMS5003;42804;55.762;38.084;2023-02-26T10:13:53;8.25;4.50;1.50
56495;PMS5003;42804;55.762;38.084;2023-02-26T10:16:25;7.00;5.75;3.00
56495;PMS5003;42804;55.762;38.084;2023-02-26T10:18:57;6.75;5.00;2.50
56495;PMS5003;42804;55.762;38.084;2023-02-26T10:21:29;2.00;1.00;0.00
56495;PMS5003;42804;55.762;38.084;2023-02-26T10:24:00;8.75;6.25;3.50
56495;PMS5003;42804;55.762;38.084;2023-02-26T10:26:32;5.25;5.00;3.00
56495;PMS5003;42804;55.762;38.084;2023-02-26T10:29:06;4.25;4.25;3.25
56495;PMS5003;42804;55.762;38.084;2023-02-26T10:31:47;7.00;4.00;1.00
56495;PMS5003;42804;55.762;38.084;2023-02-26T10:34:17;6.00;3.50;1.50
56495;PMS5003;42804;55.762;38.084;2023-02-26T10:36:52;5.00;4.75;1.00
56495;PMS5003;42804;55.762;38.084;2023-02-26T10:39:27;7.75;4.00;2.25
56495;PMS5003;42804;55.762;38.084;2023-02-26T10:41:58;4.50;3.00;1.25
56495;PMS5003;42804;55.762;38.084;2023-02-26T10:44:29;2.50;2.50;1.00
56495;PMS5003;42804;55.762;38.084;2023-02-26T10:47:04;3.50;1.00;0.00
56495;PMS5003;42804;55.762;38.084;2023-02-26T10:49:39;6.00;4.00;3.00
56495;PMS5003;42804;55.762;38.084;2023-02-26T10:52:12;4.50;4.25;2.25
56495;PMS5003;42804;55.762;38.084;2023-02-26T10:54:44;8.75;7.00;4.00
56495;PMS5003;42804;55.762;38.084;2023-02-26T10:57:16;4.00;3.75;1.50
56495;PMS5003;42804;55.762;38.084;2023-02-26T10:59:46;4.00;3.75;1.75
56495;PMS5003;42804;55.762;38.084;2023-02-26T11:02:33;6.50;5.25;4.00
56495;PMS5003;42804;55.762;38.084;2023-02-26T11:05:02;4.00;4.00;1.75
56495;PMS5003;42804;55.762;38.084;2023-02-26T11:07:34;6.75;4.25;2.00
56495;PMS5003;42804;55.762;38.084;2023-02-26T11:10:05;3.50;2.00;1.00
56495;PMS5003;42804;55.762;38.084;2023-02-26T11:12:39;1.50;1.50;1.00
56495;PMS5003;42804;55.762;38.084;2023-02-26T11:15:13;10.00;5.00;2.00
56495;PMS5003;42804;55.762;38.084;2023-02-26T11:17:45;7.75;7.25;4.00
56495;PMS5003;42804;55.762;38.084;2023-02-26T11:20:17;4.00;4.00;2.00
56495;PMS5003;42804;55.762;38.084;2023-02-26T11:22:51;6.50;5.25;4.00
56495;PMS5003;42804;55.762;38.084;2023-02-26T11:25:22;3.50;3.00;1.00
56495;PMS5003;42804;55.762;38.084;2023-02-26T11:27:52;7.50;7.00;4.00
56495;PMS5003;42804;55.762;38.084;2023-02-26T11:30:25;7.00;5.25;2.25
56495;PMS5003;42804;55.762;38.084;2023-02-26T11:32:55;4.25;4.25;1.00
56495;PMS5003;42804;55.762;38.084;2023-02-26T11:35:24;6.50;6.50;4.25
56495;PMS5003;42804;55.762;38.084;2023-02-26T11:37:53;5.50;5.25;4.00
56495;PMS5003;42804;55.762;38.084;2023-02-26T11:40:25;5.00;5.00;3.50
56495;PMS5003;42804;55.762;38.084;2023-02-26T11:42:55;12.50;6.75;3.75
56495;PMS5003;42804;55.762;38.084;2023-02-26T11:45:25;13.00;8.50;4.00
56495;PMS5003;42804;55.762;38.084;2023-02-26T11:47:57;7.25;6.50;4.00
56495;PMS5003;42804;55.762;38.084;2023-02-26T11:50:28;7.75;5.25;1.00
56495;PMS5003;42804;55.762;38.084;2023-02-26T11:53:03;9.00;7.00;5.00
56495;PMS5003;42804;55.762;38.084;2023-02-26T11:55:32;10.50;10.00;6.00
56495;PMS5003;42804;55.762;38.084;2023-02-26T11:58:01;6.00;5.50;3.00
56495;PMS5003;42804;55.762;38.084;2023-02-26T12:00:34;9.50;9.00;4.00
56495;PMS5003;42804;55.762;38.084;2023-02-26T12:03:06;11.50;11.25;7.00
56495;PMS5003;42804;55.762;38.084;2023-02-26T12:05:36;6.75;5.25;2.25
56495;PMS5003;42804;55.762;38.084;2023-02-26T12:08:06;4.00;4.00;1.25
56495;PMS5003;42804;55.762;38.084;2023-02-26T12:10:42;6.50;4.75;3.00
56495;PMS5003;42804;55.762;38.084;2023-02-26T12:13:14;5.00;4.00;3.00
56495;PMS5003;42804;55.762;38.084;2023-02-26T12:15:47;6.00;4.50;1.00
56495;PMS5003;42804;55.762;38.084;2023-02-26T12:18:27;7.00;6.00;4.00
56495;PMS5003;42804;55.762;38.084;2023-02-26T12:21:00;3.00;2.50;1.00
56495;PMS5003;42804;55.762;38.084;2023-02-26T12:26:19;6.00;4.00;2.25
56495;PMS5003;42804;55.762;38.084;2023-02-26T12:28:57;4.00;4.00;3.00
56495;PMS5003;42804;55.762;38.084;2023-02-26T12:31:35;10.00;7.00;4.00
56495;PMS5003;42804;55.762;38.084;2023-02-26T12:34:14;7.25;5.25;1.00
56495;PMS5003;42804;55.762;38.084;2023-02-26T12:36:49;9.50;9.50;4.00
56495;PMS5003;42804;55.762;38.084;2023-02-26T12:39:28;7.50;7.00;4.00
56495;PMS5003;42804;55.762;38.084;2023-02-26T12:42:02;7.50;7.50;5.25
56495;PMS5003;42804;55.762;38.084;2023-02-26T12:47:24;13.25;10.00;5.25
56495;PMS5003;42804;55.762;38.084;2023-02-26T12:50:04;4.50;4.00;3.00
56495;PMS5003;42804;55.762;38.084;2023-02-26T12:52:41;5.00;4.50;1.00
56495;PMS5003;42804;55.762;38.084;2023-02-26T12:55:13;2.50;2.00;0.00
56495;PMS5003;42804;55.762;38.084;2023-02-26T12:57:54;6.50;6.50;1.25
56495;PMS5003;42804;55.762;38.084;2023-02-26T13:00:29;7.00;6.75;3.25
56495;PMS5003;42804;55.762;38.084;2023-02-26T13:05:55;11.25;9.50;6.00
56495;PMS5003;42804;55.762;38.084;2023-02-26T13:08:28;9.25;9.00;4.75
56495;PMS5003;42804;55.762;38.084;2023-02-26T13:11:05;9.00;7.00;3.00
56495;PMS5003;42804;55.762;38.084;2023-02-26T13:13:38;6.25;6.00;3.00
56495;PMS5003;42804;55.762;38.084;2023-02-26T13:16:14;11.00;8.50;4.75
56495;PMS5003;42804;55.762;38.084;2023-02-26T13:18:47;4.00;4.00;2.50
56495;PMS5003;42804;55.762;38.084;2023-02-26T13:21:21;5.00;5.00;1.50
56495;PMS5003;42804;55.762;38.084;2023-02-26T13:23:54;4.00;4.00;3.00
56495;PMS5003;42804;55.762;38.084;2023-02-26T13:26:24;10.00;9.00;4.00
56495;PMS5003;42804;55.762;38.084;2023-02-26T13:28:55;12.25;9.75;7.00
56495;PMS5003;42804;55.762;38.084;2023-02-26T13:31:27;20.20;19.00;13.00
56495;PMS5003;42804;55.762;38.084;2023-02-26T13:33:58;30.00;27.00;17.60
56495;PMS5003;42804;55.762;38.084;2023-02-26T13:36:33;24.20;20.60;12.80
56495;PMS5003;42804;55.762;38.084;2023-02-26T13:39:05;20.75;17.50;12.50
56495;PMS5003;42804;55.762;38.084;2023-02-26T13:41:39;9.25;7.50;1.00
56495;PMS5003;42804;55.762;38.084;2023-02-26T13:44:16;15.00;13.00;7.00
56495;PMS5003;42804;55.762;38.084;2023-02-26T13:46:49;18.25;17.50;9.00
56495;PMS5003;42804;55.762;38.084;2023-02-26T13:49:20;14.50;12.50;9.00
56495;PMS5003;42804;55.762;38.084;2023-02-26T13:51:52;19.40;17.20;10.00
56495;PMS5003;42804;55.762;38.084;2023-02-26T13:54:28;14.00;10.00;7.00
56495;PMS5003;42804;55.762;38.084;2023-02-26T13:57:07;17.60;16.00;11.80
56495;PMS5003;42804;55.762;38.084;2023-02-26T13:59:44;27.20;24.00;15.60
56495;PMS5003;42804;55.762;38.084;2023-02-26T14:02:34;25.00;22.60;13.80
56495;PMS5003;42804;55.762;38.084;2023-02-26T14:05:06;28.40;22.00;15.80
56495;PMS5003;42804;55.762;38.084;2023-02-26T14:07:48;23.20;21.80;13.00
56495;PMS5003;42804;55.762;38.084;2023-02-26T14:10:23;22.50;19.00;12.25
56495;PMS5003;42804;55.762;38.084;2023-02-26T14:13:01;18.20;18.20;16.20
56495;PMS5003;42804;55.762;38.084;2023-02-26T14:15:38;16.80;16.20;12.60
56495;PMS5003;42804;55.762;38.084;2023-02-26T14:23:51;18.75;17.75;10.50
56495;PMS5003;42804;55.762;38.084;2023-02-26T14:26:23;15.25;12.75;10.50
56495;PMS5003;42804;55.762;38.084;2023-02-26T14:28:54;25.00;21.00;13.00
56495;PMS5003;42804;55.762;38.084;2023-02-26T14:31:24;10.50;9.00;5.00
56495;PMS5003;42804;55.762;38.084;2023-02-26T14:34:07;17.00;11.50;7.00